Time;durP1;ratioP1;P1;durP2;ratioP2;P2;SDS_P1;SDS_P2;PMS_P1;PMS_P2;Temp;Humidity;BMP_temperature;BMP_pressure;BME280_temperature;BME280_humidity;BME280_pressure;Samples;Min_cycle;Max_cycle;Signal;HPM_P1;HPM_P2
2023/03/22 00:02:03;;;;;;;6.03;4.90;;;10.80;1.00;;;;;;5023606;28;20209;-66
2023/03/22 00:04:31;;;;;;;8.13;5.23;;;10.80;1.00;;;;;;5023828;28;20281;-65
2023/03/22 00:06:58;;;;;;;7.70;5.40;;;10.80;1.00;;;;;;5039057;28;20602;-66
2023/03/22 00:09:25;;;;;;;7.53;5.30;;;10.80;1.00;;;;;;5040566;28;20265;-66
2023/03/22 00:11:52;;;;;;;8.40;5.33;;;10.90;1.00;;;;;;5021715;28;20303;-66
2023/03/22 00:14:19;;;;;;;9.33;4.73;;;10.90;1.00;;;;;;5032741;28;20698;-66
2023/03/22 00:16:47;;;;;;;6.37;4.93;;;10.90;1.00;;;;;;5023181;28;20596;-66
2023/03/22 00:19:16;;;;;;;8.43;5.27;;;10.80;1.00;;;;;;5023824;28;20321;-64
2023/03/22 00:21:43;;;;;;;5.93;4.90;;;10.80;1.00;;;;;;5039948;28;20220;-64
2023/03/22 00:24:11;;;;;;;7.60;5.53;;;10.90;1.00;;;;;;5040707;28;20911;-65
2023/03/22 00:26:38;;;;;;;7.77;5.20;;;10.80;1.00;;;;;;5013414;28;20223;-65
2023/03/22 00:29:05;;;;;;;8.00;5.70;;;10.70;1.00;;;;;;5017461;28;20274;-65
2023/03/22 00:31:33;;;;;;;9.00;5.23;;;10.60;1.00;;;;;;5020293;28;20211;-65
2023/03/22 00:34:00;;;;;;;5.47;4.83;;;10.70;1.00;;;;;;5022053;28;20199;-64
2023/03/22 00:36:27;;;;;;;6.77;5.50;;;10.70;1.00;;;;;;5023611;28;20207;-65
2023/03/22 00:38:54;;;;;;;6.97;5.33;;;10.60;1.00;;;;;;5014578;28;20200;-65
2023/03/22 00:41:22;;;;;;;11.70;6.27;;;10.60;1.00;;;;;;5030814;28;20754;-65
2023/03/22 00:43:50;;;;;;;8.23;5.30;;;10.60;1.00;;;;;;5013750;28;20210;-66
2023/03/22 00:46:19;;;;;;;6.43;4.90;;;10.70;1.00;;;;;;5039255;28;20552;-66
2023/03/22 00:48:47;;;;;;;7.87;5.37;;;10.70;1.00;;;;;;5021779;28;20193;-66
2023/03/22 00:51:15;;;;;;;10.43;5.50;;;10.70;1.00;;;;;;5040251;28;20192;-66
2023/03/22 00:53:43;;;;;;;8.20;5.53;;;10.70;1.00;;;;;;5034970;28;20557;-65
2023/03/22 00:56:14;;;;;;;8.33;6.07;;;10.70;1.00;;;;;;5030650;28;20204;-65
2023/03/22 00:58:47;;;;;;;9.37;5.57;;;10.70;1.00;;;;;;5022086;28;20207;-66
2023/03/22 01:01:14;;;;;;;7.83;5.30;;;10.90;1.00;;;;;;5035563;28;20204;-65
2023/03/22 01:03:42;;;;;;;9.37;5.23;;;10.90;1.00;;;;;;5014131;28;20243;-65
2023/03/22 01:06:13;;;;;;;11.30;6.03;;;11.00;1.00;;;;;;5023412;28;20228;-66
2023/03/22 01:08:40;;;;;;;7.37;5.30;;;11.00;1.00;;;;;;5037831;28;20196;-65
2023/03/22 01:11:08;;;;;;;6.03;5.23;;;11.00;1.00;;;;;;5021773;28;20204;-69
2023/03/22 01:13:36;;;;;;;7.93;5.33;;;11.10;1.00;;;;;;5021214;28;20772;-66
2023/03/22 01:16:05;;;;;;;10.03;5.50;;;11.10;1.00;;;;;;5013537;28;20203;-66
2023/03/22 01:18:33;;;;;;;6.80;5.23;;;11.10;1.00;;;;;;5019462;28;20701;-66
2023/03/22 01:21:01;;;;;;;7.37;5.40;;;11.00;1.00;;;;;;5022059;28;20191;-67
2023/03/22 01:23:28;;;;;;;8.27;5.30;;;11.00;1.00;;;;;;5019302;28;20208;-67
2023/03/22 01:25:55;;;;;;;6.90;5.53;;;11.10;1.00;;;;;;5021681;28;20216;-66
2023/03/22 01:28:22;;;;;;;6.63;5.33;;;11.10;1.00;;;;;;5036298;28;20223;-66
2023/03/22 01:30:53;;;;;;;9.27;5.20;;;11.10;1.00;;;;;;5039066;28;20187;-66
2023/03/22 01:33:21;;;;;;;8.73;5.97;;;11.10;1.00;;;;;;5021010;28;21043;-65
2023/03/22 01:35:49;;;;;;;6.53;4.97;;;11.10;1.00;;;;;;5019971;28;20671;-66
2023/03/22 01:38:16;;;;;;;5.33;4.77;;;11.10;1.00;;;;;;5012824;28;20293;-66
2023/03/22 01:40:52;;;;;;;8.23;4.83;;;11.10;1.00;;;;;;5021996;28;20196;-68
2023/03/22 01:43:19;;;;;;;10.23;5.73;;;11.10;1.00;;;;;;5017917;28;20213;-66
2023/03/22 01:45:50;;;;;;;8.13;5.20;;;11.10;1.00;;;;;;4988928;28;20219;-65
2023/03/22 01:48:26;;;;;;;8.93;5.40;;;11.10;1.00;;;;;;5020795;28;20608;-66
2023/03/22 01:51:09;;;;;;;10.10;5.77;;;11.10;1.00;;;;;;5028377;28;20192;-66
2023/03/22 01:54:09;;;;;;;9.13;5.60;;;11.00;1.00;;;;;;5022012;28;20294;-66
2023/03/22 01:56:39;;;;;;;7.57;5.43;;;11.00;1.00;;;;;;5021177;28;20191;-66
2023/03/22 01:59:13;;;;;;;9.80;5.43;;;11.00;1.00;;;;;;5014269;28;20232;-65
2023/03/22 02:02:01;;;;;;;6.60;5.23;;;10.90;1.00;;;;;;5024918;28;20256;-71
2023/03/22 02:04:34;;;;;;;8.63;5.83;;;10.90;1.00;;;;;;5039004;22;20238;-67
2023/03/22 02:07:14;;;;;;;8.23;5.97;;;11.00;1.00;;;;;;5027189;28;20192;-67
2023/03/22 02:09:43;;;;;;;8.13;5.40;;;10.90;1.00;;;;;;5017689;28;20658;-67
2023/03/22 02:12:25;;;;;;;6.77;5.87;;;10.80;1.00;;;;;;5019372;28;20202;-66
2023/03/22 02:15:07;;;;;;;8.00;6.17;;;10.80;1.00;;;;;;5034374;28;20701;-66
2023/03/22 02:17:58;;;;;;;10.07;6.17;;;10.80;1.00;;;;;;5034576;28;20257;-67
2023/03/22 02:20:56;;;;;;;9.43;6.43;;;10.80;1.00;;;;;;5036437;28;20204;-67
2023/03/22 02:23:45;;;;;;;10.47;6.97;;;10.70;1.00;;;;;;5010128;28;20210;-67
2023/03/22 02:26:30;;;;;;;8.03;6.30;;;10.70;1.00;;;;;;5017546;28;20285;-64
2023/03/22 02:29:14;;;;;;;8.57;7.00;;;10.60;1.00;;;;;;5036999;28;20196;-67
2023/03/22 02:31:50;;;;;;;10.77;6.90;;;10.60;1.00;;;;;;5019978;28;20195;-67
2023/03/22 02:34:45;;;;;;;10.00;7.57;;;10.60;1.00;;;;;;4999439;28;20258;-67
2023/03/22 02:37:21;;;;;;;10.50;7.53;;;10.40;1.00;;;;;;5028820;28;20238;-67
2023/03/22 02:40:11;;;;;;;11.80;7.43;;;10.40;1.00;;;;;;5037038;28;20204;-67
2023/03/22 02:43:04;;;;;;;8.90;7.67;;;10.50;1.00;;;;;;5018663;28;20215;-67
2023/03/22 02:45:33;;;;;;;11.43;7.90;;;10.40;1.00;;;;;;5020409;28;20289;-66
2023/03/22 02:48:10;;;;;;;8.53;7.47;;;10.50;1.00;;;;;;5020467;28;20254;-67
2023/03/22 02:50:50;;;;;;;12.37;7.60;;;10.50;1.00;;;;;;5018420;28;20226;-67
2023/03/22 02:53:27;;;;;;;13.43;7.87;;;10.50;1.00;;;;;;5036466;28;20266;-67
2023/03/22 02:56:12;;;;;;;12.53;8.43;;;10.50;1.00;;;;;;5028153;28;20203;-67
2023/03/22 02:58:47;;;;;;;11.57;7.90;;;10.60;1.00;;;;;;5027396;28;20195;-67
2023/03/22 03:01:24;;;;;;;11.23;8.00;;;10.60;1.00;;;;;;5033289;28;20195;-66
2023/03/22 03:03:58;;;;;;;9.97;7.63;;;10.50;1.00;;;;;;5014138;28;20236;-69
2023/03/22 03:06:29;;;;;;;14.10;8.20;;;10.70;1.00;;;;;;4997909;28;20212;-70
2023/03/22 03:09:01;;;;;;;11.53;7.90;;;10.70;1.00;;;;;;4997614;28;20682;-67
2023/03/22 03:11:28;;;;;;;10.10;7.80;;;10.70;1.00;;;;;;4999935;28;20683;-66
2023/03/22 03:13:57;;;;;;;11.00;7.93;;;10.80;1.00;;;;;;4998831;28;20192;-67
2023/03/22 03:16:29;;;;;;;13.03;8.17;;;10.80;1.00;;;;;;4983043;28;20298;-67
2023/03/22 03:19:13;;;;;;;12.23;8.57;;;10.90;1.00;;;;;;4986398;28;20200;-66
2023/03/22 03:21:52;;;;;;;9.93;8.00;;;10.90;1.00;;;;;;5004589;28;20651;-68
2023/03/22 03:24:26;;;;;;;9.57;7.57;;;10.90;1.00;;;;;;5010227;28;20231;-69
2023/03/22 03:26:56;;;;;;;11.73;7.73;;;10.90;1.00;;;;;;5019837;28;20188;-69
2023/03/22 03:29:29;;;;;;;10.83;7.33;;;10.90;1.00;;;;;;5020377;28;20211;-69
2023/03/22 03:32:11;;;;;;;11.67;7.47;;;10.90;1.00;;;;;;5020718;28;20188;-67
2023/03/22 03:35:06;;;;;;;11.27;7.93;;;10.90;1.00;;;;;;4985728;28;20205;-66
2023/03/22 03:37:40;;;;;;;9.83;7.77;;;10.90;1.00;;;;;;4993757;28;20275;-69
2023/03/22 03:40:15;;;;;;;9.40;7.83;;;10.90;1.00;;;;;;5003554;28;20193;-69
2023/03/22 03:42:48;;;;;;;10.80;7.90;;;10.90;1.00;;;;;;4994701;28;20671;-69
2023/03/22 03:45:17;;;;;;;11.60;7.93;;;11.00;1.00;;;;;;5001419;28;20675;-63
2023/03/22 03:47:46;;;;;;;11.80;7.57;;;10.90;1.00;;;;;;5017461;28;20276;-63
2023/03/22 03:50:15;;;;;;;12.67;7.80;;;10.90;1.00;;;;;;5002203;28;20215;-62
2023/03/22 03:52:42;;;;;;;10.67;7.87;;;10.90;1.00;;;;;;5018832;28;20251;-62
2023/03/22 03:55:09;;;;;;;11.10;7.77;;;10.90;1.00;;;;;;4986281;28;20360;-63
2023/03/22 03:57:36;;;;;;;10.73;7.80;;;10.90;1.00;;;;;;4995217;28;20295;-63
2023/03/22 04:00:04;;;;;;;12.20;7.87;;;10.90;1.00;;;;;;5009767;28;20587;-61
2023/03/22 04:02:48;;;;;;;8.77;7.30;;;10.90;1.00;;;;;;5019742;28;20204;-60
2023/03/22 04:05:35;;;;;;;11.43;7.60;;;10.90;1.00;;;;;;5002686;28;20269;-62
2023/03/22 04:08:03;;;;;;;13.63;7.60;;;10.80;1.00;;;;;;5002661;28;20197;-62
2023/03/22 04:10:31;;;;;;;9.83;7.90;;;10.70;1.00;;;;;;5019813;28;20200;-64
2023/03/22 04:12:58;;;;;;;12.37;8.63;;;10.70;1.00;;;;;;5019296;28;20200;-62
2023/03/22 04:15:25;;;;;;;12.60;8.83;;;10.60;1.00;;;;;;5023028;28;20627;-62
2023/03/22 04:17:56;;;;;;;12.00;8.30;;;10.50;1.00;;;;;;4986395;28;20219;-61
2023/03/22 04:20:25;;;;;;;11.63;8.70;;;10.40;1.00;;;;;;4993275;28;20197;-63
2023/03/22 04:22:52;;;;;;;11.17;7.80;;;10.30;1.00;;;;;;5001914;28;20211;-62
2023/03/22 04:25:21;;;;;;;11.73;8.77;;;10.30;1.00;;;;;;5001950;28;20213;-62
2023/03/22 04:27:59;;;;;;;12.00;7.43;;;10.30;1.00;;;;;;5019928;28;20744;-61
2023/03/22 04:30:29;;;;;;;10.60;8.00;;;10.20;1.00;;;;;;4973463;28;20837;-61
2023/03/22 04:32:56;;;;;;;12.67;7.93;;;10.20;1.00;;;;;;5017140;28;20224;-61
2023/03/22 04:35:35;;;;;;;9.93;8.33;;;10.10;1.00;;;;;;5009179;28;20799;-62
2023/03/22 04:38:02;;;;;;;15.23;9.47;;;10.00;1.00;;;;;;5001690;28;20784;-62
2023/03/22 04:40:35;;;;;;;13.10;8.77;;;10.00;1.00;;;;;;5001349;28;20208;-64
2023/03/22 04:43:08;;;;;;;10.67;8.10;;;10.00;1.00;;;;;;4986409;28;20200;-60
2023/03/22 04:45:53;;;;;;;14.37;8.50;;;9.90;1.00;;;;;;5018494;28;20433;-60
2023/03/22 04:48:26;;;;;;;10.87;8.03;;;9.90;1.00;;;;;;5017977;28;20200;-60
2023/03/22 04:50:55;;;;;;;11.13;7.77;;;9.90;1.00;;;;;;5010566;28;20610;-63
2023/03/22 04:53:26;;;;;;;12.53;8.27;;;9.80;1.00;;;;;;5017037;28;20250;-62
2023/03/22 04:55:57;;;;;;;13.83;8.00;;;9.90;1.00;;;;;;5010897;28;20216;-62
2023/03/22 04:58:26;;;;;;;13.53;8.40;;;9.90;1.00;;;;;;4974769;28;20208;-62
2023/03/22 05:00:53;;;;;;;13.50;7.93;;;9.90;1.00;;;;;;4983220;28;20197;-61
2023/03/22 05:03:22;;;;;;;12.97;8.10;;;9.90;1.00;;;;;;5000217;28;20234;-61
2023/03/22 05:05:52;;;;;;;12.87;8.07;;;9.80;1.00;;;;;;4992538;28;20232;-61
2023/03/22 05:08:26;;;;;;;16.23;7.87;;;9.80;1.00;;;;;;5018591;28;20199;-61
2023/03/22 05:10:54;;;;;;;15.80;7.60;;;9.70;1.00;;;;;;4975075;28;20193;-60
2023/03/22 05:13:24;;;;;;;13.00;8.60;;;9.60;1.00;;;;;;5016793;28;20205;-59
2023/03/22 05:15:52;;;;;;;12.87;8.70;;;9.70;4.10;;;;;;5000988;28;20339;-60
2023/03/22 05:18:26;;;;;;;12.20;8.33;;;9.60;5.60;;;;;;4999534;28;20200;-61
2023/03/22 05:20:56;;;;;;;12.13;8.00;;;9.60;7.60;;;;;;5005923;28;20201;-61
2023/03/22 05:23:26;;;;;;;12.30;8.00;;;9.60;14.00;;;;;;4998379;28;20656;-62
2023/03/22 05:26:00;;;;;;;13.17;7.43;;;9.60;17.90;;;;;;5010475;28;20208;-61
2023/03/22 05:28:27;;;;;;;12.43;7.57;;;9.60;13.70;;;;;;4982827;28;20283;-63
2023/03/22 05:31:10;;;;;;;9.23;7.47;;;9.60;13.90;;;;;;5015207;28;20821;-60
2023/03/22 05:33:45;;;;;;;13.87;7.47;;;9.60;17.40;;;;;;5014724;28;20193;-59
2023/03/22 05:36:19;;;;;;;10.03;6.93;;;9.50;20.20;;;;;;4991804;28;20639;-58
2023/03/22 05:39:04;;;;;;;10.90;6.63;;;9.60;18.90;;;;;;5018392;28;20196;-61
2023/03/22 05:41:32;;;;;;;10.07;7.33;;;9.70;5.30;;;;;;4984265;28;20212;-59
2023/03/22 05:44:03;;;;;;;12.33;7.47;;;9.90;1.00;;;;;;5016846;28;20667;-61
2023/03/22 05:46:31;;;;;;;13.13;6.70;;;9.90;1.00;;;;;;4983507;28;20220;-61
2023/03/22 05:49:25;;;;;;;12.73;6.83;;;10.10;1.00;;;;;;5015813;28;20227;-59
2023/03/22 05:51:54;;;;;;;12.47;7.00;;;10.10;1.00;;;;;;5000498;28;20192;-59
2023/03/22 05:54:23;;;;;;;13.30;6.40;;;10.20;1.00;;;;;;4999117;28;20568;-59
2023/03/22 05:56:51;;;;;;;10.20;6.43;;;10.40;1.00;;;;;;4999755;28;20201;-63
2023/03/22 05:59:21;;;;;;;7.57;5.33;;;10.50;1.00;;;;;;4985161;28;20674;-61
2023/03/22 06:01:48;;;;;;;9.57;6.00;;;10.60;1.00;;;;;;5001060;28;20270;-58
2023/03/22 06:04:21;;;;;;;9.00;6.13;;;10.80;1.00;;;;;;5018610;28;20323;-60
2023/03/22 06:07:15;;;;;;;11.00;5.97;;;11.10;1.00;;;;;;5004014;28;20220;-61
2023/03/22 06:09:54;;;;;;;8.23;5.87;;;12.10;1.00;;;;;;4985948;28;20809;-60
2023/03/22 06:12:24;;;;;;;10.63;6.07;;;12.60;1.00;;;;;;5001309;28;20691;-61
2023/03/22 06:14:59;;;;;;;12.20;6.17;;;12.70;1.00;;;;;;5019950;28;20188;-61
2023/03/22 06:17:48;;;;;;;6.63;5.00;;;12.80;1.00;;;;;;5002321;28;20228;-61
2023/03/22 06:20:20;;;;;;;8.65;5.13;;;13.50;1.00;;;;;;5001428;28;20254;-66
2023/03/22 06:22:53;;;;;;;7.03;5.00;;;14.30;1.00;;;;;;5000435;28;20298;-61
2023/03/22 06:25:20;;;;;;;11.75;5.72;;;13.90;1.00;;;;;;4998423;28;20196;-61
2023/03/22 06:27:47;;;;;;;10.52;5.80;;;13.50;1.00;;;;;;5000680;28;20255;-61
2023/03/22 06:30:15;;;;;;;13.40;6.27;;;12.50;1.00;;;;;;5019051;28;20750;-61
2023/03/22 06:33:15;;;;;;;9.07;6.07;;;12.10;1.00;;;;;;5017368;28;20213;-60
2023/03/22 06:35:46;;;;;;;9.50;5.73;;;11.70;1.00;;;;;;4998675;28;20818;-61
2023/03/22 06:38:20;;;;;;;10.73;6.87;;;11.60;1.00;;;;;;4998285;28;20204;-61
2023/03/22 06:40:47;;;;;;;8.43;5.80;;;11.50;1.00;;;;;;5000291;28;20361;-62
2023/03/22 06:43:14;;;;;;;9.00;5.40;;;11.50;1.00;;;;;;4998965;28;20682;-61
2023/03/22 06:45:46;;;;;;;10.20;5.43;;;11.60;1.00;;;;;;5000731;28;20216;-61
2023/03/22 06:48:14;;;;;;;12.47;5.93;;;11.50;1.00;;;;;;4977045;28;20726;-60
2023/03/22 06:50:49;;;;;;;10.77;5.77;;;11.60;1.00;;;;;;5018495;28;20647;-61
2023/03/22 06:53:25;;;;;;;9.67;5.60;;;11.80;1.00;;;;;;4996838;28;20568;-61
2023/03/22 06:55:51;;;;;;;11.73;5.43;;;12.00;1.00;;;;;;4997583;28;20252;-63
2023/03/22 06:58:23;;;;;;;9.43;5.47;;;11.90;1.00;;;;;;5001361;28;20746;-62
2023/03/22 07:00:50;;;;;;;9.13;6.40;;;11.80;1.00;;;;;;4997927;28;20659;-62
2023/03/22 07:03:21;;;;;;;10.93;5.80;;;12.00;1.00;;;;;;4991254;28;20743;-61
2023/03/22 07:06:07;;;;;;;7.40;4.90;;;12.10;1.00;;;;;;5014799;28;20335;-61
2023/03/22 07:08:37;;;;;;;6.83;4.73;;;12.00;1.00;;;;;;4983792;28;20826;-61
2023/03/22 07:11:06;;;;;;;6.57;4.70;;;12.10;1.00;;;;;;4981261;28;20200;-62
2023/03/22 07:13:33;;;;;;;10.80;4.90;;;12.00;1.00;;;;;;4997050;28;20216;-60
2023/03/22 07:16:07;;;;;;;8.27;4.63;;;12.20;1.00;;;;;;4998463;28;20563;-61
2023/03/22 07:18:38;;;;;;;8.67;5.07;;;12.30;1.00;;;;;;5017907;28;20192;-62
2023/03/22 07:21:05;;;;;;;5.17;3.90;;;12.30;1.00;;;;;;4997896;28;20200;-61
2023/03/22 07:23:34;;;;;;;9.93;5.60;;;12.30;1.00;;;;;;4982370;28;20196;-62
2023/03/22 07:26:07;;;;;;;7.93;4.30;;;12.40;1.00;;;;;;4998904;28;20266;-61
2023/03/22 07:28:38;;;;;;;12.70;4.60;;;12.40;1.00;;;;;;5000906;28;20575;-63
2023/03/22 07:31:10;;;;;;;7.80;4.37;;;12.40;1.00;;;;;;4982845;28;20262;-61
2023/03/22 07:33:52;;;;;;;9.57;3.50;;;12.30;1.00;;;;;;5015248;28;20576;-60
2023/03/22 07:36:24;;;;;;;7.43;4.83;;;12.40;1.00;;;;;;4995516;28;20645;-62
2023/03/22 07:38:52;;;;;;;9.70;3.90;;;12.50;1.00;;;;;;4994641;28;20212;-62
2023/03/22 07:41:29;;;;;;;8.13;3.93;;;12.50;1.00;;;;;;4982996;28;20262;-61
2023/03/22 07:44:14;;;;;;;6.37;3.90;;;12.60;1.00;;;;;;5017060;28;20199;-61
2023/03/22 07:47:03;;;;;;;6.60;3.77;;;12.60;1.00;;;;;;5013991;28;20220;-61
2023/03/22 07:49:45;;;;;;;7.70;3.80;;;12.80;1.00;;;;;;5005937;28;20244;-63
2023/03/22 07:52:15;;;;;;;8.87;3.63;;;13.40;1.00;;;;;;5015996;28;20648;-61
2023/03/22 07:54:42;;;;;;;7.30;4.07;;;13.70;1.00;;;;;;4984029;28;20705;-61
2023/03/22 07:57:09;;;;;;;7.13;3.70;;;13.60;1.00;;;;;;4998354;28;20320;-63
2023/03/22 07:59:43;;;;;;;7.47;3.43;;;13.20;1.00;;;;;;4998795;28;20593;-64
2023/03/22 08:02:11;;;;;;;5.95;3.60;;;13.30;1.00;;;;;;5013878;28;20226;-60
2023/03/22 08:04:45;;;;;;;7.20;3.77;;;13.40;1.00;;;;;;5001312;28;20733;-59
2023/03/22 08:07:17;;;;;;;5.07;3.45;;;13.50;1.00;;;;;;5015797;28;20715;-59
2023/03/22 08:09:45;;;;;;;6.18;3.40;;;14.30;1.00;;;;;;4992764;28;20188;-60
2023/03/22 08:12:12;;;;;;;7.45;3.17;;;16.00;1.00;;;;;;4999083;28;20200;-62
2023/03/22 08:14:40;;;;;;;7.10;3.60;;;15.80;1.00;;;;;;5015022;28;20312;-60
2023/03/22 08:17:14;;;;;;;5.03;3.17;;;16.90;1.00;;;;;;5002053;28;20211;-61
2023/03/22 08:19:42;;;;;;;5.00;3.20;;;16.30;1.00;;;;;;5018282;28;20196;-60
2023/03/22 08:22:12;;;;;;;7.60;3.50;;;17.70;1.00;;;;;;4997330;28;20734;-60
2023/03/22 08:24:57;;;;;;;5.78;3.03;;;18.80;1.00;;;;;;5018891;28;20199;-62
2023/03/22 08:27:28;;;;;;;6.30;3.00;;;17.20;1.00;;;;;;5001990;28;20216;-61
2023/03/22 08:29:57;;;;;;;7.38;3.78;;;17.20;1.00;;;;;;5003136;28;20656;-62
2023/03/22 08:32:24;;;;;;;8.52;3.78;;;17.90;1.00;;;;;;4985002;28;20197;-60
2023/03/22 08:34:51;;;;;;;6.25;2.90;;;18.50;1.00;;;;;;5001833;28;20204;-61
2023/03/22 08:37:19;;;;;;;6.78;3.20;;;18.40;1.00;;;;;;4986668;28;20208;-62
2023/03/22 08:39:47;;;;;;;6.45;2.90;;;17.40;1.00;;;;;;5003161;28;20205;-61
2023/03/22 08:42:35;;;;;;;7.70;3.22;;;17.70;1.00;;;;;;5017583;28;20219;-61
2023/03/22 08:45:03;;;;;;;10.20;3.25;;;15.70;1.00;;;;;;5000693;28;20201;-62
2023/03/22 08:47:32;;;;;;;6.53;2.80;;;17.70;1.00;;;;;;4986775;28;20633;-62
2023/03/22 08:50:02;;;;;;;6.03;3.00;;;17.50;1.00;;;;;;5004138;28;20200;-64
2023/03/22 08:52:50;;;;;;;8.13;2.90;;;16.20;1.00;;;;;;4988249;28;20295;-61
2023/03/22 08:55:26;;;;;;;6.13;2.35;;;15.60;1.00;;;;;;4985746;28;20251;-61
2023/03/22 08:58:12;;;;;;;7.43;2.90;;;15.30;1.00;;;;;;5017883;28;20207;-59
2023/03/22 09:00:48;;;;;;;6.38;2.50;;;14.90;1.00;;;;;;5010194;28;20215;-63
2023/03/22 09:03:26;;;;;;;6.70;2.90;;;15.00;1.00;;;;;;5001187;28;20244;-60
2023/03/22 09:05:53;;;;;;;4.75;2.60;;;14.80;1.00;;;;;;5000963;28;20566;-60
2023/03/22 09:08:20;;;;;;;6.15;2.72;;;15.40;1.00;;;;;;5001756;28;20766;-62
2023/03/22 09:10:54;;;;;;;6.30;2.60;;;15.40;1.00;;;;;;5001875;28;20266;-61
2023/03/22 09:13:22;;;;;;;7.30;2.53;;;15.10;1.00;;;;;;4997652;28;20208;-61
2023/03/22 09:15:54;;;;;;;6.57;2.45;;;15.00;1.00;;;;;;5000145;28;20236;-60
2023/03/22 09:18:24;;;;;;;5.53;2.42;;;15.30;1.00;;;;;;5000124;28;20223;-59
2023/03/22 09:20:53;;;;;;;7.03;2.03;;;15.70;1.00;;;;;;4997131;28;20197;-60
2023/03/22 09:23:25;;;;;;;4.40;2.30;;;16.30;1.00;;;;;;4984455;28;20212;-61
2023/03/22 09:25:53;;;;;;;7.05;2.58;;;17.10;1.00;;;;;;5008254;28;20295;-61
2023/03/22 09:28:23;;;;;;;5.55;2.80;;;17.40;1.00;;;;;;4984248;28;20274;-60
2023/03/22 09:30:51;;;;;;;5.13;2.55;;;16.30;1.00;;;;;;5017761;28;20678;-62
2023/03/22 09:33:19;;;;;;;6.38;2.33;;;15.40;1.00;;;;;;5016910;28;20342;-59
2023/03/22 09:35:49;;;;;;;5.82;2.17;;;16.20;1.00;;;;;;5000395;28;20743;-61
2023/03/22 09:38:16;;;;;;;6.18;2.35;;;18.50;1.00;;;;;;4999947;28;20208;-60
2023/03/22 09:40:59;;;;;;;6.70;2.42;;;19.10;1.00;;;;;;5020763;28;20220;-60
2023/03/22 09:43:36;;;;;;;4.43;2.28;;;19.50;1.00;;;;;;4993450;28;20200;-61
2023/03/22 09:46:11;;;;;;;6.30;2.35;;;19.00;1.00;;;;;;4999055;28;20702;-60
2023/03/22 09:48:41;;;;;;;6.05;2.10;;;17.80;1.00;;;;;;5018097;28;20205;-60
2023/03/22 09:51:38;;;;;;;4.55;2.05;;;17.80;1.00;;;;;;4976818;28;20291;-60
2023/03/22 09:54:31;;;;;;;2.58;1.85;;;18.30;1.00;;;;;;4975759;28;20567;-61
2023/03/22 09:57:33;;;;;;;4.82;2.00;;;18.30;1.00;;;;;;4989687;28;20843;-60
2023/03/22 10:00:36;;;;;;;5.38;1.90;;;19.10;1.00;;;;;;5016013;28;20592;-61
2023/03/22 10:03:20;;;;;;;7.57;2.63;;;17.90;1.00;;;;;;5014288;28;20296;-61
2023/03/22 10:06:20;;;;;;;4.95;2.45;;;20.20;1.00;;;;;;5002210;28;20733;-61
2023/03/22 10:08:58;;;;;;;5.55;2.45;;;21.30;1.00;;;;;;4935750;28;20212;-60
2023/03/22 10:11:38;;;;;;;6.03;2.65;;;19.90;1.00;;;;;;4992043;28;20200;-61
2023/03/22 10:14:22;;;;;;;4.30;2.58;;;21.00;1.00;;;;;;4985848;28;20283;-60
2023/03/22 10:16:53;;;;;;;4.40;2.17;;;21.60;1.00;;;;;;5018480;28;20205;-59
2023/03/22 10:19:52;;;;;;;7.68;3.17;;;20.70;1.00;;;;;;5000786;28;20675;-60
2023/03/22 10:22:24;;;;;;;3.70;2.33;;;19.10;1.00;;;;;;4998791;28;20240;-60
2023/03/22 10:24:52;;;;;;;5.18;2.75;;;18.40;1.00;;;;;;5017976;28;20212;-60
2023/03/22 10:27:22;;;;;;;6.65;2.58;;;18.00;1.00;;;;;;4991517;28;20223;-61
2023/03/22 10:30:05;;;;;;;6.00;2.50;;;18.00;1.00;;;;;;5000363;28;20627;-60
2023/03/22 10:32:41;;;;;;;7.38;2.60;;;17.10;1.00;;;;;;5016039;28;20263;-61
2023/03/22 10:35:23;;;;;;;5.38;2.40;;;16.50;1.00;;;;;;4985385;28;20274;-61
2023/03/22 10:37:51;;;;;;;4.63;2.83;;;17.10;1.00;;;;;;5008042;28;20243;-61
2023/03/22 10:40:31;;;;;;;7.15;2.40;;;17.00;1.00;;;;;;5000431;28;20200;-60
2023/03/22 10:43:24;;;;;;;5.65;2.50;;;16.70;1.00;;;;;;5018482;28;20225;-62
2023/03/22 10:45:54;;;;;;;6.13;3.78;;;17.20;1.00;;;;;;4998753;28;20319;-63
2023/03/22 10:48:31;;;;;;;5.72;2.17;;;17.80;1.00;;;;;;4999282;28;20664;-61
2023/03/22 10:51:00;;;;;;;6.15;2.60;;;18.30;1.00;;;;;;4993009;28;20204;-62
2023/03/22 10:53:45;;;;;;;3.03;2.40;;;18.70;1.00;;;;;;5018695;28;20718;-62
2023/03/22 10:56:14;;;;;;;9.35;3.00;;;17.50;1.00;;;;;;5019561;28;20219;-63
2023/03/22 10:58:42;;;;;;;4.50;2.55;;;16.90;1.00;;;;;;5017909;28;20547;-61
2023/03/22 11:01:31;;;;;;;6.55;2.97;;;17.20;1.00;;;;;;5019297;28;20205;-61
2023/03/22 11:03:58;;;;;;;4.32;2.50;;;17.60;1.00;;;;;;5009273;28;20323;-60
2023/03/22 11:06:35;;;;;;;9.93;5.30;;;17.20;1.00;;;;;;5019656;28;20204;-60
2023/03/22 11:09:24;;;;;;;13.77;6.85;;;16.80;1.00;;;;;;4992906;28;20196;-60
2023/03/22 11:11:54;;;;;;;6.45;3.60;;;16.90;1.00;;;;;;5016524;28;20196;-62
2023/03/22 11:14:32;;;;;;;6.00;3.15;;;16.80;1.00;;;;;;5019019;28;20200;-61
2023/03/22 11:17:15;;;;;;;5.38;3.10;;;16.40;1.00;;;;;;4975299;28;20224;-60
2023/03/22 11:19:59;;;;;;;7.72;2.35;;;16.20;1.00;;;;;;5017368;28;20197;-62
2023/03/22 11:22:46;;;;;;;6.43;2.30;;;16.90;1.00;;;;;;5017161;28;20200;-60
2023/03/22 11:25:32;;;;;;;5.25;2.83;;;17.60;1.00;;;;;;5001145;28;20185;-61
2023/03/22 11:28:15;;;;;;;5.15;2.55;;;19.40;1.00;;;;;;5017919;28;20267;-62
2023/03/22 11:31:07;;;;;;;5.15;2.95;;;19.70;1.00;;;;;;5000005;28;20249;-62
2023/03/22 11:33:35;;;;;;;3.33;1.70;;;19.10;1.00;;;;;;5000151;28;20212;-61
2023/03/22 11:36:15;;;;;;;4.68;2.10;;;19.30;1.00;;;;;;5016666;28;20201;-59
2023/03/22 11:38:42;;;;;;;4.95;2.05;;;18.30;1.00;;;;;;5018885;28;20204;-59
2023/03/22 11:41:16;;;;;;;3.38;1.90;;;17.80;1.00;;;;;;5003140;28;20745;-61
2023/03/22 11:43:47;;;;;;;3.85;1.63;;;17.40;1.00;;;;;;5003340;28;20234;-60
2023/03/22 11:46:18;;;;;;;6.90;2.08;;;17.40;1.00;;;;;;4998612;28;21081;-61
2023/03/22 11:48:47;;;;;;;5.43;1.80;;;18.20;1.00;;;;;;5019739;28;20549;-60
2023/03/22 11:51:17;;;;;;;4.05;1.88;;;18.30;1.00;;;;;;5004091;28;20692;-60
2023/03/22 11:53:47;;;;;;;2.88;1.65;;;19.20;1.00;;;;;;5021799;28;20251;-60
2023/03/22 11:56:24;;;;;;;3.17;1.60;;;19.50;1.00;;;;;;5002552;28;20189;-59
2023/03/22 11:59:21;;;;;;;3.45;1.80;;;18.50;1.00;;;;;;5018340;28;20583;-62
2023/03/22 12:02:12;;;;;;;3.65;1.83;;;18.30;1.00;;;;;;5018288;28;20250;-61
2023/03/22 12:04:42;;;;;;;3.53;1.67;;;18.30;1.00;;;;;;5021635;28;20287;-60
2023/03/22 12:07:15;;;;;;;3.72;2.22;;;17.90;1.00;;;;;;5003074;28;20281;-60
2023/03/22 12:09:41;;;;;;;6.95;1.98;;;18.10;1.00;;;;;;5020878;28;20772;-60
2023/03/22 12:12:18;;;;;;;7.38;1.88;;;17.70;1.00;;;;;;5000702;28;20679;-60
2023/03/22 12:15:04;;;;;;;5.20;1.90;;;17.60;1.00;;;;;;5021797;28;20624;-60
2023/03/22 12:18:02;;;;;;;6.63;1.83;;;17.20;1.00;;;;;;5022032;28;20208;-62
2023/03/22 12:20:42;;;;;;;5.22;2.90;;;17.00;1.00;;;;;;5010358;28;20207;-65
2023/03/22 12:23:19;;;;;;;4.13;1.73;;;16.60;1.00;;;;;;5021880;28;20565;-61
2023/03/22 12:26:05;;;;;;;5.75;1.83;;;16.70;1.00;;;;;;5021277;28;20805;-61
2023/03/22 12:28:52;;;;;;;5.72;2.58;;;16.60;1.00;;;;;;5019175;28;20217;-61
2023/03/22 12:31:30;;;;;;;5.68;3.28;;;16.30;1.00;;;;;;5019283;28;20280;-61
2023/03/22 12:34:31;;;;;;;3.85;1.50;;;16.40;1.00;;;;;;4995593;28;20200;-61
2023/03/22 12:37:00;;;;;;;3.50;1.42;;;16.20;1.00;;;;;;5003198;28;20243;-60
2023/03/22 12:39:39;;;;;;;4.22;1.70;;;16.10;1.00;;;;;;4985372;28;20214;-60
2023/03/22 12:42:38;;;;;;;3.38;1.40;;;16.00;1.00;;;;;;5008906;28;20287;-59
2023/03/22 12:45:23;;;;;;;5.40;1.40;;;16.10;1.00;;;;;;4994493;28;20219;-62
2023/03/22 12:48:09;;;;;;;3.55;1.40;;;16.40;1.00;;;;;;5009833;28;20212;-59
2023/03/22 12:51:00;;;;;;;2.13;1.40;;;16.50;1.00;;;;;;5017532;28;20770;-60
2023/03/22 12:53:33;;;;;;;4.50;1.58;;;15.80;1.00;;;;;;5009597;28;20212;-60
2023/03/22 12:56:01;;;;;;;6.90;1.60;;;15.40;1.00;;;;;;4992477;28;20879;-60
2023/03/22 12:58:28;;;;;;;4.30;1.42;;;15.20;1.00;;;;;;5000706;28;20204;-60
2023/03/22 13:01:00;;;;;;;6.50;2.20;;;15.00;1.00;;;;;;5000392;28;20243;-59
2023/03/22 13:03:36;;;;;;;3.92;1.52;;;14.90;1.00;;;;;;5001900;28;20251;-58
2023/03/22 13:06:32;;;;;;;4.18;1.77;;;15.00;1.00;;;;;;5018080;28;20219;-60
2023/03/22 13:09:08;;;;;;;5.32;1.63;;;15.20;1.00;;;;;;5019106;28;20279;-60
2023/03/22 13:11:35;;;;;;;5.03;1.52;;;15.20;1.00;;;;;;4994386;28;20201;-61
2023/03/22 13:14:02;;;;;;;4.22;1.30;;;15.10;1.00;;;;;;4996648;28;20664;-60
2023/03/22 13:16:49;;;;;;;3.70;1.58;;;15.30;1.00;;;;;;5016079;28;20266;-60
2023/03/22 13:19:31;;;;;;;5.50;1.30;;;15.50;1.00;;;;;;5017495;28;20220;-60
2023/03/22 13:22:20;;;;;;;4.15;1.48;;;15.60;1.00;;;;;;4977379;28;20204;-59
2023/03/22 13:25:33;;;;;;;3.50;1.40;;;15.50;1.00;;;;;;5018799;28;20208;-60
2023/03/22 13:28:22;;;;;;;3.55;1.65;;;15.40;1.00;;;;;;4964346;28;20706;-61
2023/03/22 13:30:51;;;;;;;2.22;1.42;;;15.20;1.00;;;;;;5014760;28;20258;-60
2023/03/22 13:33:27;;;;;;;2.20;1.35;;;15.40;1.00;;;;;;4987834;28;20310;-61
2023/03/22 13:35:56;;;;;;;2.75;1.38;;;15.50;1.00;;;;;;5013095;28;20245;-60